Terminal Aerodrome Forecast
Issued by NWS

Home | Current Version | Previous Version | Text Only | Print | Product List | Glossary On
Versions: 1 2 3 4 5 6 7 8 9 10 11 12 13 14 15 16
000
FTUS41 KBOX 270540
TAFBED
TAF
KBED 270540Z 2706/2806 01005KT 5SM -DZ BR OVC004
      TEMPO 2708/2712 1/2SM FG OVC003
     FM271200 00000KT 1SM -DZ BR OVC008
     FM271400 00000KT P6SM OVC010
     FM272100 13006KT P6SM BKN015
     FM280100 14005KT 3SM BR BKN020=

USA.gov is the U.S. government's official web portal to all federal, state and local government web resources and services.